sensor_id;sensor_type;location;lat;lon;timestamp;pressure;altitude;pressure_sealevel;temperature;humidity
6851;BME280;3464;42.728;23.296;2022-12-18T00:01:31;95989.12;;;12.69;67.44
6851;BME280;3464;42.728;23.296;2022-12-18T00:03:58;95997.00;;;12.96;66.91
6851;BME280;3464;42.728;23.296;2022-12-18T00:06:26;96003.31;;;12.59;67.82
6851;BME280;3464;42.728;23.296;2022-12-18T00:08:53;95998.06;;;13.12;66.82
6851;BME280;3464;42.728;23.296;2022-12-18T00:11:21;95999.50;;;13.28;66.30
6851;BME280;3464;42.728;23.296;2022-12-18T00:13:47;96001.44;;;13.14;66.01
6851;BME280;3464;42.728;23.296;2022-12-18T00:16:15;96004.89;;;13.23;65.82
6851;BME280;3464;42.728;23.296;2022-12-18T00:18:41;96009.52;;;13.19;66.14
6851;BME280;3464;42.728;23.296;2022-12-18T00:21:08;96004.89;;;13.20;65.70
6851;BME280;3464;42.728;23.296;2022-12-18T00:23:34;96019.65;;;12.53;66.48
6851;BME280;3464;42.728;23.296;2022-12-18T00:26:02;96015.70;;;13.07;66.11
6851;BME280;3464;42.728;23.296;2022-12-18T00:28:28;96026.42;;;12.90;66.04
6851;BME280;3464;42.728;23.296;2022-12-18T00:31:08;96028.55;;;12.57;66.36
6851;BME280;3464;42.728;23.296;2022-12-18T00:33:35;96021.28;;;12.18;66.82
6851;BME280;3464;42.728;23.296;2022-12-18T00:36:02;96037.33;;;12.86;65.89
6851;BME280;3464;42.728;23.296;2022-12-18T00:38:28;96035.00;;;12.36;66.29
6851;BME280;3464;42.728;23.296;2022-12-18T00:40:54;96035.02;;;12.70;66.29
6851;BME280;3464;42.728;23.296;2022-12-18T00:43:21;96033.09;;;12.51;66.39
6851;BME280;3464;42.728;23.296;2022-12-18T00:45:47;96033.89;;;12.81;66.15
6851;BME280;3464;42.728;23.296;2022-12-18T00:48:14;96039.86;;;12.84;65.18
6851;BME280;3464;42.728;23.296;2022-12-18T00:50:40;96037.64;;;12.15;66.78
6851;BME280;3464;42.728;23.296;2022-12-18T00:53:07;96047.14;;;12.63;66.67
6851;BME280;3464;42.728;23.296;2022-12-18T00:55:33;96038.97;;;12.51;66.27
6851;BME280;3464;42.728;23.296;2022-12-18T00:58:00;96042.68;;;12.16;66.59
6851;BME280;3464;42.728;23.296;2022-12-18T01:00:26;96057.13;;;12.88;65.81
6851;BME280;3464;42.728;23.296;2022-12-18T01:02:53;96055.30;;;12.74;65.16
6851;BME280;3464;42.728;23.296;2022-12-18T01:05:21;96057.08;;;13.17;64.73
6851;BME280;3464;42.728;23.296;2022-12-18T01:07:49;96053.59;;;13.04;64.89
6851;BME280;3464;42.728;23.296;2022-12-18T01:10:15;96052.80;;;12.17;66.60
6851;BME280;3464;42.728;23.296;2022-12-18T01:12:42;96056.28;;;12.55;65.52
6851;BME280;3464;42.728;23.296;2022-12-18T01:15:09;96059.55;;;12.17;65.58
6851;BME280;3464;42.728;23.296;2022-12-18T01:17:35;96054.63;;;12.27;65.69
6851;BME280;3464;42.728;23.296;2022-12-18T01:20:02;96070.85;;;12.14;66.74
6851;BME280;3464;42.728;23.296;2022-12-18T01:22:29;96075.70;;;12.29;66.17
6851;BME280;3464;42.728;23.296;2022-12-18T01:24:55;96080.59;;;12.78;65.11
6851;BME280;3464;42.728;23.296;2022-12-18T01:27:22;96072.64;;;12.82;64.34
6851;BME280;3464;42.728;23.296;2022-12-18T01:29:49;96075.01;;;12.39;64.95
6851;BME280;3464;42.728;23.296;2022-12-18T01:32:15;96074.35;;;12.84;64.11
6851;BME280;3464;42.728;23.296;2022-12-18T01:34:42;96080.80;;;12.95;63.73
6851;BME280;3464;42.728;23.296;2022-12-18T01:37:09;96079.96;;;12.93;63.45
6851;BME280;3464;42.728;23.296;2022-12-18T01:39:36;96083.69;;;12.56;64.41
6851;BME280;3464;42.728;23.296;2022-12-18T01:42:03;96085.16;;;12.73;63.62
6851;BME280;3464;42.728;23.296;2022-12-18T01:47:07;96094.48;;;12.47;63.71
6851;BME280;3464;42.728;23.296;2022-12-18T01:49:34;96091.25;;;12.88;63.61
6851;BME280;3464;42.728;23.296;2022-12-18T01:52:00;96095.32;;;13.08;62.73
6851;BME280;3464;42.728;23.296;2022-12-18T01:54:28;96092.09;;;12.57;63.46
6851;BME280;3464;42.728;23.296;2022-12-18T01:56:54;96096.93;;;12.72;63.29
6851;BME280;3464;42.728;23.296;2022-12-18T01:59:21;96090.63;;;12.71;63.12
6851;BME280;3464;42.728;23.296;2022-12-18T02:01:49;96095.36;;;11.96;64.72
6851;BME280;3464;42.728;23.296;2022-12-18T02:04:27;96102.02;;;11.67;65.12
6851;BME280;3464;42.728;23.296;2022-12-18T02:06:59;96103.20;;;12.13;64.57
6851;BME280;3464;42.728;23.296;2022-12-18T02:09:26;96102.94;;;11.50;65.99
6851;BME280;3464;42.728;23.296;2022-12-18T02:11:58;96104.25;;;11.30;66.59
6851;BME280;3464;42.728;23.296;2022-12-18T02:14:28;96107.98;;;11.72;65.45
6851;BME280;3464;42.728;23.296;2022-12-18T02:17:36;96112.47;;;12.13;64.70
6851;BME280;3464;42.728;23.296;2022-12-18T02:22:45;96110.22;;;12.04;64.69
6851;BME280;3464;42.728;23.296;2022-12-18T02:25:21;96121.95;;;12.28;64.10
6851;BME280;3464;42.728;23.296;2022-12-18T02:27:46;96114.08;;;12.09;64.48
6851;BME280;3464;42.728;23.296;2022-12-18T02:30:13;96121.66;;;11.85;64.26
6851;BME280;3464;42.728;23.296;2022-12-18T02:32:39;96122.84;;;12.04;64.50
6851;BME280;3464;42.728;23.296;2022-12-18T02:35:06;96126.28;;;11.84;64.27
6851;BME280;3464;42.728;23.296;2022-12-18T02:37:33;96132.64;;;11.88;64.77
6851;BME280;3464;42.728;23.296;2022-12-18T02:40:00;96119.76;;;11.96;64.14
6851;BME280;3464;42.728;23.296;2022-12-18T02:42:27;96130.87;;;11.82;64.77
6851;BME280;3464;42.728;23.296;2022-12-18T02:44:53;96135.94;;;11.39;65.25
6851;BME280;3464;42.728;23.296;2022-12-18T02:47:22;96128.50;;;11.67;64.91
6851;BME280;3464;42.728;23.296;2022-12-18T02:50:14;96127.03;;;11.58;65.03
6851;BME280;3464;42.728;23.296;2022-12-18T02:53:04;96135.66;;;11.06;65.75
6851;BME280;3464;42.728;23.296;2022-12-18T02:56:05;96133.61;;;11.27;65.71
6851;BME280;3464;42.728;23.296;2022-12-18T02:58:20;96138.98;;;11.23;65.81
6851;BME280;3464;42.728;23.296;2022-12-18T03:03:24;96134.09;;;11.53;65.00
6851;BME280;3464;42.728;23.296;2022-12-18T03:05:53;96138.30;;;11.11;65.59
6851;BME280;3464;42.728;23.296;2022-12-18T03:08:23;96130.53;;;11.63;64.75
6851;BME280;3464;42.728;23.296;2022-12-18T03:10:51;96141.36;;;10.97;65.14
6851;BME280;3464;42.728;23.296;2022-12-18T03:13:18;96137.92;;;10.92;65.55
6851;BME280;3464;42.728;23.296;2022-12-18T03:15:45;96132.51;;;11.59;64.41
6851;BME280;3464;42.728;23.296;2022-12-18T03:18:12;96148.84;;;11.13;64.99
6851;BME280;3464;42.728;23.296;2022-12-18T03:20:38;96154.66;;;11.30;64.92
6851;BME280;3464;42.728;23.296;2022-12-18T03:23:07;96157.10;;;11.68;64.36
6851;BME280;3464;42.728;23.296;2022-12-18T03:25:33;96155.67;;;11.19;65.21
6851;BME280;3464;42.728;23.296;2022-12-18T03:28:00;96156.04;;;11.15;64.78
6851;BME280;3464;42.728;23.296;2022-12-18T03:30:26;96163.35;;;10.66;65.51
6851;BME280;3464;42.728;23.296;2022-12-18T03:32:58;96168.98;;;11.33;64.66
6851;BME280;3464;42.728;23.296;2022-12-18T03:35:22;96173.08;;;11.48;63.92
6851;BME280;3464;42.728;23.296;2022-12-18T03:37:48;96171.25;;;11.21;64.12
6851;BME280;3464;42.728;23.296;2022-12-18T03:40:14;96182.91;;;11.56;63.08
6851;BME280;3464;42.728;23.296;2022-12-18T03:42:46;96168.00;;;11.47;62.65
6851;BME280;3464;42.728;23.296;2022-12-18T03:45:19;96184.97;;;11.33;62.80
6851;BME280;3464;42.728;23.296;2022-12-18T03:50:14;96195.27;;;11.04;62.98
6851;BME280;3464;42.728;23.296;2022-12-18T03:52:56;96201.36;;;11.15;62.93
6851;BME280;3464;42.728;23.296;2022-12-18T03:55:20;96200.45;;;11.92;61.64
6851;BME280;3464;42.728;23.296;2022-12-18T03:57:47;96200.03;;;11.31;62.63
6851;BME280;3464;42.728;23.296;2022-12-18T04:00:15;96202.66;;;11.16;62.91
6851;BME280;3464;42.728;23.296;2022-12-18T04:02:51;96199.89;;;11.63;62.42
6851;BME280;3464;42.728;23.296;2022-12-18T04:05:17;96193.28;;;11.49;62.17
6851;BME280;3464;42.728;23.296;2022-12-18T04:07:45;96202.41;;;12.09;61.51
6851;BME280;3464;42.728;23.296;2022-12-18T04:10:11;96196.59;;;11.48;61.73
6851;BME280;3464;42.728;23.296;2022-12-18T04:12:38;96203.31;;;11.28;62.97
6851;BME280;3464;42.728;23.296;2022-12-18T04:15:05;96204.59;;;11.67;62.03
6851;BME280;3464;42.728;23.296;2022-12-18T04:17:32;96219.35;;;11.51;61.70
6851;BME280;3464;42.728;23.296;2022-12-18T04:19:59;96225.20;;;11.49;61.37
6851;BME280;3464;42.728;23.296;2022-12-18T04:22:25;96231.20;;;11.15;62.34
6851;BME280;3464;42.728;23.296;2022-12-18T04:24:53;96233.13;;;11.07;62.42
6851;BME280;3464;42.728;23.296;2022-12-18T04:27:20;96235.58;;;11.43;61.78
6851;BME280;3464;42.728;23.296;2022-12-18T04:29:46;96238.98;;;11.63;61.18
6851;BME280;3464;42.728;23.296;2022-12-18T04:32:13;96241.61;;;11.50;60.85
6851;BME280;3464;42.728;23.296;2022-12-18T04:34:40;96247.25;;;11.19;61.34
6851;BME280;3464;42.728;23.296;2022-12-18T04:37:06;96248.45;;;11.35;61.24
6851;BME280;3464;42.728;23.296;2022-12-18T04:39:34;96249.69;;;11.73;60.33
6851;BME280;3464;42.728;23.296;2022-12-18T04:42:01;96250.80;;;11.47;60.12
6851;BME280;3464;42.728;23.296;2022-12-18T04:44:27;96259.80;;;10.99;60.58
6851;BME280;3464;42.728;23.296;2022-12-18T04:46:53;96267.16;;;11.64;59.87
6851;BME280;3464;42.728;23.296;2022-12-18T04:49:20;96260.63;;;11.75;59.32
6851;BME280;3464;42.728;23.296;2022-12-18T04:51:46;96270.97;;;11.28;60.31
6851;BME280;3464;42.728;23.296;2022-12-18T04:54:14;96266.32;;;11.66;59.56
6851;BME280;3464;42.728;23.296;2022-12-18T04:56:42;96274.69;;;11.44;59.27
6851;BME280;3464;42.728;23.296;2022-12-18T04:59:09;96289.92;;;10.94;60.33
6851;BME280;3464;42.728;23.296;2022-12-18T05:01:35;96276.34;;;11.23;59.83
6851;BME280;3464;42.728;23.296;2022-12-18T05:04:02;96279.47;;;11.52;59.28
6851;BME280;3464;42.728;23.296;2022-12-18T05:06:30;96284.61;;;11.57;59.03
6851;BME280;3464;42.728;23.296;2022-12-18T05:08:57;96290.98;;;11.40;59.21
6851;BME280;3464;42.728;23.296;2022-12-18T05:11:25;96298.38;;;10.97;60.25
6851;BME280;3464;42.728;23.296;2022-12-18T05:13:52;96300.25;;;11.22;60.33
6851;BME280;3464;42.728;23.296;2022-12-18T05:16:21;96302.02;;;11.26;60.11
6851;BME280;3464;42.728;23.296;2022-12-18T05:18:48;96311.45;;;10.98;60.34
6851;BME280;3464;42.728;23.296;2022-12-18T05:21:14;96312.58;;;10.75;61.38
6851;BME280;3464;42.728;23.296;2022-12-18T05:23:41;96321.44;;;10.78;61.32
6851;BME280;3464;42.728;23.296;2022-12-18T05:26:07;96321.99;;;11.00;60.47
6851;BME280;3464;42.728;23.296;2022-12-18T05:28:35;96327.94;;;11.21;60.47
6851;BME280;3464;42.728;23.296;2022-12-18T05:31:01;96329.23;;;11.60;59.59
6851;BME280;3464;42.728;23.296;2022-12-18T05:33:30;96328.88;;;11.07;60.08
6851;BME280;3464;42.728;23.296;2022-12-18T05:35:57;96332.94;;;11.38;60.16
6851;BME280;3464;42.728;23.296;2022-12-18T05:38:25;96341.62;;;11.30;59.47
6851;BME280;3464;42.728;23.296;2022-12-18T05:40:51;96350.55;;;11.17;59.74
6851;BME280;3464;42.728;23.296;2022-12-18T05:43:22;96338.62;;;11.46;58.91
6851;BME280;3464;42.728;23.296;2022-12-18T05:45:45;96347.48;;;11.48;59.03
6851;BME280;3464;42.728;23.296;2022-12-18T05:48:12;96348.95;;;11.58;58.00
6851;BME280;3464;42.728;23.296;2022-12-18T05:50:39;96353.86;;;11.34;58.50
6851;BME280;3464;42.728;23.296;2022-12-18T05:53:05;96350.53;;;11.54;58.15
6851;BME280;3464;42.728;23.296;2022-12-18T05:55:34;96357.23;;;10.98;59.07
6851;BME280;3464;42.728;23.296;2022-12-18T05:58:01;96357.17;;;11.13;58.84
6851;BME280;3464;42.728;23.296;2022-12-18T06:00:27;96368.69;;;10.87;59.37
6851;BME280;3464;42.728;23.296;2022-12-18T06:02:54;96373.06;;;11.47;58.41
6851;BME280;3464;42.728;23.296;2022-12-18T06:05:21;96377.55;;;11.23;58.10
6851;BME280;3464;42.728;23.296;2022-12-18T06:07:47;96385.98;;;11.42;58.54
6851;BME280;3464;42.728;23.296;2022-12-18T06:10:15;96388.80;;;11.37;58.34
6851;BME280;3464;42.728;23.296;2022-12-18T06:12:41;96373.37;;;11.59;57.57
6851;BME280;3464;42.728;23.296;2022-12-18T06:15:08;96375.17;;;11.46;57.30
6851;BME280;3464;42.728;23.296;2022-12-18T06:17:35;96378.27;;;11.54;57.42
6851;BME280;3464;42.728;23.296;2022-12-18T06:20:02;96383.03;;;11.41;57.59
6851;BME280;3464;42.728;23.296;2022-12-18T06:22:30;96380.22;;;11.47;57.47
6851;BME280;3464;42.728;23.296;2022-12-18T06:24:56;96386.52;;;10.94;58.30
6851;BME280;3464;42.728;23.296;2022-12-18T06:27:23;96380.78;;;10.21;59.67
6851;BME280;3464;42.728;23.296;2022-12-18T06:29:50;96388.02;;;10.24;59.83
6851;BME280;3464;42.728;23.296;2022-12-18T06:32:17;96391.83;;;10.41;59.24
6851;BME280;3464;42.728;23.296;2022-12-18T06:34:43;96392.86;;;10.80;59.07
6851;BME280;3464;42.728;23.296;2022-12-18T06:37:10;96395.02;;;11.33;57.80
6851;BME280;3464;42.728;23.296;2022-12-18T06:39:36;96401.66;;;11.83;56.99
6851;BME280;3464;42.728;23.296;2022-12-18T06:42:03;96404.64;;;11.30;57.46
6851;BME280;3464;42.728;23.296;2022-12-18T06:44:30;96411.63;;;10.92;57.42
6851;BME280;3464;42.728;23.296;2022-12-18T06:46:57;96413.65;;;11.56;56.74
6851;BME280;3464;42.728;23.296;2022-12-18T06:49:23;96416.02;;;11.32;56.96
6851;BME280;3464;42.728;23.296;2022-12-18T06:51:50;96416.14;;;11.20;56.95
6851;BME280;3464;42.728;23.296;2022-12-18T06:54:17;96420.02;;;11.59;56.15
6851;BME280;3464;42.728;23.296;2022-12-18T06:56:44;96421.30;;;11.25;56.25
6851;BME280;3464;42.728;23.296;2022-12-18T06:59:10;96424.09;;;11.54;55.89
6851;BME280;3464;42.728;23.296;2022-12-18T07:01:38;96423.67;;;11.03;56.36
6851;BME280;3464;42.728;23.296;2022-12-18T07:04:05;96428.01;;;10.92;56.77
6851;BME280;3464;42.728;23.296;2022-12-18T07:06:32;96428.95;;;11.12;56.40
6851;BME280;3464;42.728;23.296;2022-12-18T07:09:00;96430.22;;;12.01;54.93
6851;BME280;3464;42.728;23.296;2022-12-18T07:11:26;96432.64;;;11.25;55.55
6851;BME280;3464;42.728;23.296;2022-12-18T07:13:53;96437.25;;;10.92;56.02
6851;BME280;3464;42.728;23.296;2022-12-18T07:16:21;96435.80;;;11.87;54.86
6851;BME280;3464;42.728;23.296;2022-12-18T07:18:47;96438.84;;;11.05;55.85
6851;BME280;3464;42.728;23.296;2022-12-18T07:21:15;96439.11;;;10.99;55.29
6851;BME280;3464;42.728;23.296;2022-12-18T07:23:40;96450.56;;;11.03;56.07
6851;BME280;3464;42.728;23.296;2022-12-18T07:26:11;96446.59;;;10.34;57.54
6851;BME280;3464;42.728;23.296;2022-12-18T07:28:37;96438.52;;;10.93;56.32
6851;BME280;3464;42.728;23.296;2022-12-18T07:31:05;96456.58;;;10.47;57.01
6851;BME280;3464;42.728;23.296;2022-12-18T07:33:31;96451.66;;;10.81;57.14
6851;BME280;3464;42.728;23.296;2022-12-18T07:35:58;96452.77;;;10.45;57.83
6851;BME280;3464;42.728;23.296;2022-12-18T07:38:24;96451.69;;;10.83;57.35
6851;BME280;3464;42.728;23.296;2022-12-18T07:40:51;96462.69;;;10.70;57.38
6851;BME280;3464;42.728;23.296;2022-12-18T07:43:18;96466.21;;;10.31;58.16
6851;BME280;3464;42.728;23.296;2022-12-18T07:45:45;96460.16;;;10.11;58.63
6851;BME280;3464;42.728;23.296;2022-12-18T07:48:11;96459.61;;;10.35;57.98
6851;BME280;3464;42.728;23.296;2022-12-18T07:50:38;96460.98;;;10.84;57.46
6851;BME280;3464;42.728;23.296;2022-12-18T07:53:04;96458.96;;;10.72;57.39
6851;BME280;3464;42.728;23.296;2022-12-18T07:55:31;96467.67;;;10.83;57.95
6851;BME280;3464;42.728;23.296;2022-12-18T07:58:00;96473.84;;;10.19;59.09
6851;BME280;3464;42.728;23.296;2022-12-18T08:00:25;96476.64;;;11.21;57.09
6851;BME280;3464;42.728;23.296;2022-12-18T08:02:51;96482.73;;;11.13;57.49
6851;BME280;3464;42.728;23.296;2022-12-18T08:05:18;96483.45;;;11.24;57.20
6851;BME280;3464;42.728;23.296;2022-12-18T08:07:44;96483.94;;;10.20;59.30
6851;BME280;3464;42.728;23.296;2022-12-18T08:10:11;96482.27;;;11.28;57.79
6851;BME280;3464;42.728;23.296;2022-12-18T08:12:37;96481.59;;;11.02;57.34
6851;BME280;3464;42.728;23.296;2022-12-18T08:15:05;96490.69;;;10.80;57.53
6851;BME280;3464;42.728;23.296;2022-12-18T08:17:32;96492.83;;;11.30;56.70
6851;BME280;3464;42.728;23.296;2022-12-18T08:19:59;96489.38;;;10.94;56.71
6851;BME280;3464;42.728;23.296;2022-12-18T08:22:25;96492.63;;;11.21;55.48
6851;BME280;3464;42.728;23.296;2022-12-18T08:24:52;96513.81;;;11.29;55.39
6851;BME280;3464;42.728;23.296;2022-12-18T08:27:19;96514.94;;;11.71;54.82
6851;BME280;3464;42.728;23.296;2022-12-18T08:29:45;96512.87;;;11.58;54.47
6851;BME280;3464;42.728;23.296;2022-12-18T08:32:12;96515.42;;;11.10;55.26
6851;BME280;3464;42.728;23.296;2022-12-18T08:34:38;96514.02;;;11.37;54.56
6851;BME280;3464;42.728;23.296;2022-12-18T08:37:05;96524.73;;;10.82;55.20
6851;BME280;3464;42.728;23.296;2022-12-18T08:39:31;96516.84;;;11.32;54.29
6851;BME280;3464;42.728;23.296;2022-12-18T08:41:58;96515.45;;;10.80;54.68
6851;BME280;3464;42.728;23.296;2022-12-18T08:44:30;96525.65;;;10.70;54.95
6851;BME280;3464;42.728;23.296;2022-12-18T08:47:03;96518.47;;;10.99;54.73
6851;BME280;3464;42.728;23.296;2022-12-18T08:49:29;96524.53;;;11.37;54.13
6851;BME280;3464;42.728;23.296;2022-12-18T08:51:56;96520.22;;;11.01;54.23
6851;BME280;3464;42.728;23.296;2022-12-18T08:54:24;96524.61;;;10.63;54.69
6851;BME280;3464;42.728;23.296;2022-12-18T08:56:50;96524.89;;;11.03;55.03
6851;BME280;3464;42.728;23.296;2022-12-18T08:59:17;96531.08;;;10.83;55.06
6851;BME280;3464;42.728;23.296;2022-12-18T09:01:44;96525.19;;;11.15;54.58
6851;BME280;3464;42.728;23.296;2022-12-18T09:04:11;96523.19;;;11.34;54.57
6851;BME280;3464;42.728;23.296;2022-12-18T09:06:39;96521.84;;;11.14;54.27
6851;BME280;3464;42.728;23.296;2022-12-18T09:09:07;96525.63;;;11.63;53.96
6851;BME280;3464;42.728;23.296;2022-12-18T09:11:34;96523.16;;;11.50;53.37
6851;BME280;3464;42.728;23.296;2022-12-18T09:14:03;96519.51;;;11.70;52.69
6851;BME280;3464;42.728;23.296;2022-12-18T09:16:31;96523.70;;;11.54;53.28
6851;BME280;3464;42.728;23.296;2022-12-18T09:18:59;96525.04;;;11.57;53.24
6851;BME280;3464;42.728;23.296;2022-12-18T09:21:26;96528.20;;;11.49;53.59
6851;BME280;3464;42.728;23.296;2022-12-18T09:23:52;96526.25;;;11.71;53.24
6851;BME280;3464;42.728;23.296;2022-12-18T09:26:18;96525.38;;;11.70;53.52
6851;BME280;3464;42.728;23.296;2022-12-18T09:28:45;96525.52;;;11.27;53.81
6851;BME280;3464;42.728;23.296;2022-12-18T09:31:13;96517.30;;;11.65;53.01
6851;BME280;3464;42.728;23.296;2022-12-18T09:33:39;96521.94;;;12.59;51.97
6851;BME280;3464;42.728;23.296;2022-12-18T09:36:07;96520.28;;;11.85;52.27
6851;BME280;3464;42.728;23.296;2022-12-18T09:38:33;96518.84;;;11.95;52.32
6851;BME280;3464;42.728;23.296;2022-12-18T09:41:03;96530.05;;;11.89;52.61
6851;BME280;3464;42.728;23.296;2022-12-18T09:43:30;96521.28;;;12.47;51.04
6851;BME280;3464;42.728;23.296;2022-12-18T09:45:58;96519.02;;;12.81;50.43
6851;BME280;3464;42.728;23.296;2022-12-18T09:48:26;96522.36;;;12.22;50.69
6851;BME280;3464;42.728;23.296;2022-12-18T09:50:51;96519.82;;;13.44;49.47
6851;BME280;3464;42.728;23.296;2022-12-18T09:53:20;96523.83;;;13.56;48.94
6851;BME280;3464;42.728;23.296;2022-12-18T09:55:47;96517.61;;;13.88;48.91
6851;BME280;3464;42.728;23.296;2022-12-18T09:58:19;96519.33;;;14.16;48.39
6851;BME280;3464;42.728;23.296;2022-12-18T10:00:45;96515.84;;;13.82;48.58
6851;BME280;3464;42.728;23.296;2022-12-18T10:03:13;96521.33;;;13.10;49.74
6851;BME280;3464;42.728;23.296;2022-12-18T10:05:50;96513.03;;;13.66;49.26
6851;BME280;3464;42.728;23.296;2022-12-18T10:08:22;96507.02;;;13.34;49.79
6851;BME280;3464;42.728;23.296;2022-12-18T10:10:53;96523.48;;;12.72;50.00
6851;BME280;3464;42.728;23.296;2022-12-18T10:13:31;96517.39;;;13.02;49.77
6851;BME280;3464;42.728;23.296;2022-12-18T10:16:13;96522.27;;;12.55;49.49
6851;BME280;3464;42.728;23.296;2022-12-18T10:24:03;96519.84;;;13.69;48.47
6851;BME280;3464;42.728;23.296;2022-12-18T10:26:27;96517.23;;;12.97;49.23
6851;BME280;3464;42.728;23.296;2022-12-18T10:28:54;96518.42;;;13.12;48.53
6851;BME280;3464;42.728;23.296;2022-12-18T10:31:23;96526.76;;;13.31;48.83
6851;BME280;3464;42.728;23.296;2022-12-18T10:33:50;96518.39;;;13.35;49.09
6851;BME280;3464;42.728;23.296;2022-12-18T10:36:16;96522.45;;;13.26;49.18
6851;BME280;3464;42.728;23.296;2022-12-18T10:38:43;96521.06;;;13.20;48.95
6851;BME280;3464;42.728;23.296;2022-12-18T10:41:25;96516.64;;;13.08;49.01
6851;BME280;3464;42.728;23.296;2022-12-18T10:46:26;96516.31;;;11.95;50.90
6851;BME280;3464;42.728;23.296;2022-12-18T10:48:54;96529.43;;;11.81;51.70
6851;BME280;3464;42.728;23.296;2022-12-18T10:51:25;96509.13;;;12.91;49.80
6851;BME280;3464;42.728;23.296;2022-12-18T10:53:52;96513.77;;;12.51;50.58
6851;BME280;3464;42.728;23.296;2022-12-18T10:56:18;96522.12;;;11.92;50.67
6851;BME280;3464;42.728;23.296;2022-12-18T10:58:44;96521.13;;;12.22;50.22
6851;BME280;3464;42.728;23.296;2022-12-18T11:01:12;96519.52;;;12.07;50.26
6851;BME280;3464;42.728;23.296;2022-12-18T11:03:43;96515.41;;;11.93;50.33
6851;BME280;3464;42.728;23.296;2022-12-18T11:06:11;96511.59;;;12.89;49.53
6851;BME280;3464;42.728;23.296;2022-12-18T11:08:38;96519.23;;;13.11;49.08
6851;BME280;3464;42.728;23.296;2022-12-18T11:11:06;96519.83;;;13.21;48.63
6851;BME280;3464;42.728;23.296;2022-12-18T11:13:30;96524.32;;;12.93;49.26
6851;BME280;3464;42.728;23.296;2022-12-18T11:15:57;96516.98;;;12.84;49.46
6851;BME280;3464;42.728;23.296;2022-12-18T11:18:29;96506.50;;;13.06;49.66
6851;BME280;3464;42.728;23.296;2022-12-18T11:21:07;96508.92;;;13.48;48.48
6851;BME280;3464;42.728;23.296;2022-12-18T11:23:35;96518.47;;;14.16;47.69
6851;BME280;3464;42.728;23.296;2022-12-18T11:26:03;96514.20;;;13.35;47.87
6851;BME280;3464;42.728;23.296;2022-12-18T11:28:29;96518.85;;;13.86;48.10
6851;BME280;3464;42.728;23.296;2022-12-18T11:31:16;96525.82;;;13.49;47.81
6851;BME280;3464;42.728;23.296;2022-12-18T11:33:40;96520.84;;;13.07;48.71
6851;BME280;3464;42.728;23.296;2022-12-18T11:36:07;96518.66;;;12.83;49.44
6851;BME280;3464;42.728;23.296;2022-12-18T11:38:34;96515.19;;;13.44;48.16
6851;BME280;3464;42.728;23.296;2022-12-18T11:41:10;96515.36;;;12.87;48.80
6851;BME280;3464;42.728;23.296;2022-12-18T11:43:35;96526.92;;;12.36;49.69
6851;BME280;3464;42.728;23.296;2022-12-18T11:46:17;96519.78;;;12.56;49.60
6851;BME280;3464;42.728;23.296;2022-12-18T11:48:46;96514.82;;;13.46;48.37
6851;BME280;3464;42.728;23.296;2022-12-18T11:51:14;96520.33;;;13.24;48.41
6851;BME280;3464;42.728;23.296;2022-12-18T11:53:38;96519.34;;;13.17;48.52
6851;BME280;3464;42.728;23.296;2022-12-18T11:56:26;96519.02;;;13.46;48.09
6851;BME280;3464;42.728;23.296;2022-12-18T11:58:59;96512.95;;;13.37;48.32
6851;BME280;3464;42.728;23.296;2022-12-18T12:04:22;96516.23;;;13.31;48.74
6851;BME280;3464;42.728;23.296;2022-12-18T12:06:57;96509.74;;;13.23;49.21
6851;BME280;3464;42.728;23.296;2022-12-18T12:09:23;96519.39;;;13.43;48.87
6851;BME280;3464;42.728;23.296;2022-12-18T12:12:06;96507.54;;;13.65;48.57
6851;BME280;3464;42.728;23.296;2022-12-18T12:15:04;96512.98;;;13.88;47.83
6851;BME280;3464;42.728;23.296;2022-12-18T12:17:38;96508.08;;;13.99;47.76
6851;BME280;3464;42.728;23.296;2022-12-18T12:20:26;96508.53;;;13.74;47.97
6851;BME280;3464;42.728;23.296;2022-12-18T12:23:26;96521.16;;;13.73;47.82
6851;BME280;3464;42.728;23.296;2022-12-18T12:25:56;96520.83;;;13.78;47.14
6851;BME280;3464;42.728;23.296;2022-12-18T12:28:31;96518.34;;;13.81;47.58
6851;BME280;3464;42.728;23.296;2022-12-18T12:31:05;96517.97;;;13.83;47.73
6851;BME280;3464;42.728;23.296;2022-12-18T12:33:35;96526.34;;;13.80;47.84
6851;BME280;3464;42.728;23.296;2022-12-18T12:36:17;96525.66;;;13.64;47.86
6851;BME280;3464;42.728;23.296;2022-12-18T12:38:41;96524.67;;;13.81;47.80
6851;BME280;3464;42.728;23.296;2022-12-18T12:41:08;96529.40;;;13.14;48.63
6851;BME280;3464;42.728;23.296;2022-12-18T12:43:41;96529.69;;;12.87;48.95
6851;BME280;3464;42.728;23.296;2022-12-18T12:46:06;96528.42;;;13.29;48.99
6851;BME280;3464;42.728;23.296;2022-12-18T12:48:35;96525.59;;;12.53;49.71
6851;BME280;3464;42.728;23.296;2022-12-18T12:51:02;96536.16;;;12.74;49.17
6851;BME280;3464;42.728;23.296;2022-12-18T12:53:30;96535.95;;;12.25;49.86
6851;BME280;3464;42.728;23.296;2022-12-18T12:55:55;96534.65;;;12.82;49.19
6851;BME280;3464;42.728;23.296;2022-12-18T12:58:31;96536.12;;;12.34;49.41
6851;BME280;3464;42.728;23.296;2022-12-18T13:01:01;96536.76;;;12.63;49.32
6851;BME280;3464;42.728;23.296;2022-12-18T13:06:16;96552.55;;;12.16;50.02
6851;BME280;3464;42.728;23.296;2022-12-18T13:11:30;96549.22;;;12.36;50.00
6851;BME280;3464;42.728;23.296;2022-12-18T13:14:01;96558.16;;;12.40;50.14
6851;BME280;3464;42.728;23.296;2022-12-18T13:16:27;96556.05;;;12.21;50.34
6851;BME280;3464;42.728;23.296;2022-12-18T13:18:55;96558.29;;;11.75;50.79
6851;BME280;3464;42.728;23.296;2022-12-18T13:21:28;96568.63;;;12.01;50.94
6851;BME280;3464;42.728;23.296;2022-12-18T13:23:57;96567.61;;;11.95;51.10
6851;BME280;3464;42.728;23.296;2022-12-18T13:26:31;96569.20;;;12.64;50.08
6851;BME280;3464;42.728;23.296;2022-12-18T13:28:57;96565.64;;;12.75;49.78
6851;BME280;3464;42.728;23.296;2022-12-18T13:34:25;96565.52;;;12.68;50.04
6851;BME280;3464;42.728;23.296;2022-12-18T13:36:51;96573.36;;;12.61;50.03
6851;BME280;3464;42.728;23.296;2022-12-18T13:39:23;96572.39;;;12.75;49.69
6851;BME280;3464;42.728;23.296;2022-12-18T13:41:49;96579.27;;;12.43;50.69
6851;BME280;3464;42.728;23.296;2022-12-18T13:44:34;96579.16;;;12.02;51.28
6851;BME280;3464;42.728;23.296;2022-12-18T13:47:01;96586.27;;;11.84;51.77